Terminal Aerodrome Forecast
Issued by NWS

Home | Current Version | Previous Version | Text Only | Print | Product List | Glossary On
Versions: 1 2 3 4 5 6 7 8 9 10 11 12 13 14 15 16 17 18 19
000
FTUS41 KCLE 010100 AAA
TAFFDY
TAF AMD
KFDY 010101Z 0101/0124 22004KT P6SM SCT070
     FM010900 VRB03KT 5SM BR SKC
     FM011300 23005KT P6SM SCT250
     FM011900 17004KT P6SM BKN050=

USA.gov is the U.S. government's official web portal to all federal, state and local government web resources and services.